createdAt,value
2018-09-17T00:01:22.026Z,96.00
2018-09-17T00:03:49.679Z,96.20
2018-09-17T00:06:17.368Z,96.50
2018-09-17T00:08:44.973Z,96.60
2018-09-17T00:11:12.644Z,96.80
2018-09-17T00:13:40.300Z,97.10
2018-09-17T00:16:07.959Z,97.10
2018-09-17T00:18:35.644Z,96.80
2018-09-17T00:21:03.439Z,96.90
2018-09-17T00:23:31.055Z,96.90
2018-09-17T00:25:58.703Z,97.00
2018-09-17T00:28:26.350Z,97.30
2018-09-17T00:30:53.969Z,97.40
2018-09-17T00:33:21.648Z,97.50
2018-09-17T00:35:51.317Z,97.40
2018-09-17T00:38:18.957Z,97.30
2018-09-17T00:40:47.257Z,97.30
2018-09-17T00:43:14.925Z,97.40
2018-09-17T00:45:42.522Z,97.30
2018-09-17T00:48:10.146Z,97.60
2018-09-17T00:50:37.842Z,97.60
2018-09-17T00:53:05.949Z,97.50
2018-09-17T00:55:33.557Z,97.70
2018-09-17T00:58:01.279Z,97.70
2018-09-17T01:00:28.860Z,97.60
2018-09-17T01:02:56.506Z,97.80
2018-09-17T01:05:24.124Z,97.90
2018-09-17T01:07:51.725Z,97.80
2018-09-17T01:10:19.345Z,97.70
2018-09-17T01:12:47.000Z,97.70
2018-09-17T01:15:14.626Z,97.80
2018-09-17T01:17:42.223Z,97.80
2018-09-17T01:20:09.813Z,97.90
2018-09-17T01:22:37.484Z,98.20
2018-09-17T01:25:05.093Z,98.10
2018-09-17T01:27:32.711Z,98.40
2018-09-17T01:30:00.298Z,98.10
2018-09-17T01:32:27.940Z,97.70
2018-09-17T01:34:55.546Z,98.00
2018-09-17T01:37:23.167Z,98.20
2018-09-17T01:39:50.861Z,98.20
2018-09-17T01:42:18.482Z,98.30
2018-09-17T01:44:46.499Z,98.10
2018-09-17T01:47:14.154Z,98.40
2018-09-17T01:49:41.777Z,98.40
2018-09-17T01:52:09.445Z,98.50
2018-09-17T01:54:37.046Z,98.30
2018-09-17T01:57:04.721Z,98.10
2018-09-17T01:59:32.393Z,98.30
2018-09-17T02:02:00.012Z,98.40
2018-09-17T02:04:27.624Z,98.40
2018-09-17T02:06:55.236Z,98.60
2018-09-17T02:09:35.282Z,98.40
2018-09-17T02:12:02.847Z,98.50
2018-09-17T02:14:30.476Z,98.60
2018-09-17T02:16:58.189Z,98.40
2018-09-17T02:19:25.790Z,98.50
2018-09-17T02:21:53.465Z,98.80
2018-09-17T02:24:21.066Z,98.60
2018-09-17T02:26:48.761Z,99.00
2018-09-17T02:29:16.382Z,98.90
2018-09-17T02:31:43.983Z,98.90
2018-09-17T02:34:11.628Z,99.20
2018-09-17T02:36:39.241Z,98.80
2018-09-17T02:39:07.069Z,98.60
2018-09-17T02:41:34.681Z,98.80
2018-09-17T02:44:02.340Z,98.90
2018-09-17T02:46:29.938Z,98.90
2018-09-17T02:48:57.573Z,99.10
2018-09-17T02:51:25.497Z,99.20
2018-09-17T02:53:53.098Z,99.40
2018-09-17T02:56:20.773Z,99.20
2018-09-17T02:58:48.495Z,99.30
2018-09-17T03:01:16.221Z,99.50
2018-09-17T03:03:43.826Z,99.30
2018-09-17T03:06:11.580Z,99.20
2018-09-17T03:08:39.214Z,99.30
2018-09-17T03:11:06.919Z,99.40
2018-09-17T03:13:34.573Z,99.30
2018-09-17T03:16:02.165Z,99.40
2018-09-17T03:18:36.738Z,99.40
2018-09-17T03:21:05.493Z,99.60
2018-09-17T03:23:34.714Z,99.70
2018-09-17T03:26:02.390Z,99.90
2018-09-17T03:28:33.849Z,99.80
2018-09-17T03:31:01.503Z,99.70
2018-09-17T03:33:29.475Z,99.70
2018-09-17T03:35:57.141Z,99.70
2018-09-17T03:38:32.544Z,99.50
2018-09-17T03:41:01.230Z,99.50
2018-09-17T03:43:29.035Z,99.60
2018-09-17T03:45:56.687Z,99.60
2018-09-17T03:48:24.363Z,99.80
2018-09-17T03:50:51.978Z,99.90
2018-09-17T03:53:19.593Z,99.90
2018-09-17T03:55:47.195Z,99.80
2018-09-17T03:58:14.829Z,99.90
2018-09-17T04:00:42.457Z,99.90
2018-09-17T04:03:10.262Z,99.90
2018-09-17T04:05:37.890Z,99.90
2018-09-17T04:08:05.518Z,99.90
2018-09-17T04:10:33.150Z,99.90
2018-09-17T04:13:00.795Z,99.90
2018-09-17T04:15:28.674Z,99.90
2018-09-17T04:17:56.918Z,99.90
2018-09-17T04:20:25.869Z,99.90
2018-09-17T04:22:53.484Z,99.90
2018-09-17T04:25:21.122Z,99.90
2018-09-17T04:27:48.778Z,99.90
2018-09-17T04:30:21.082Z,99.90
2018-09-17T04:32:48.734Z,99.90
2018-09-17T04:35:16.398Z,99.90
2018-09-17T04:37:44.021Z,99.90
2018-09-17T04:40:11.644Z,99.90
2018-09-17T04:42:40.588Z,99.90
2018-09-17T04:45:08.220Z,99.90
2018-09-17T04:47:36.009Z,99.90
2018-09-17T04:50:03.746Z,99.90
2018-09-17T04:52:31.879Z,99.90
2018-09-17T04:54:59.507Z,99.90
2018-09-17T04:57:32.922Z,99.90
2018-09-17T05:00:00.546Z,99.90
2018-09-17T05:02:28.163Z,99.90
2018-09-17T05:04:55.797Z,99.90
2018-09-17T05:07:23.455Z,99.90
2018-09-17T05:09:51.098Z,99.90
2018-09-17T05:12:19.013Z,99.90
2018-09-17T05:14:46.683Z,99.90
2018-09-17T05:17:14.329Z,99.90
2018-09-17T05:19:41.962Z,99.90
2018-09-17T05:22:17.772Z,99.90
2018-09-17T05:24:45.396Z,99.90
2018-09-17T05:27:12.937Z,99.90
2018-09-17T05:29:40.569Z,99.90
2018-09-17T05:32:11.764Z,99.90
2018-09-17T05:34:39.408Z,99.90
2018-09-17T05:39:53.784Z,99.90
2018-09-17T05:42:21.374Z,99.90
2018-09-17T05:44:49.049Z,99.90
2018-09-17T05:47:16.715Z,99.90
2018-09-17T05:49:44.438Z,99.90
2018-09-17T05:52:12.040Z,99.90
2018-09-17T05:54:39.669Z,99.90
2018-09-17T05:57:14.709Z,99.90
2018-09-17T05:59:42.586Z,99.90
2018-09-17T06:02:10.315Z,99.90
2018-09-17T06:04:38.025Z,99.90
2018-09-17T06:07:05.882Z,99.90
2018-09-17T06:09:33.651Z,99.90
2018-09-17T06:12:01.378Z,99.90
2018-09-17T06:14:29.075Z,99.90
2018-09-17T06:16:56.859Z,99.90
2018-09-17T06:19:24.602Z,99.90
2018-09-17T06:21:52.230Z,99.90
2018-09-17T06:24:19.841Z,99.80
2018-09-17T06:26:47.490Z,99.40
2018-09-17T06:29:15.216Z,99.20
2018-09-17T06:31:42.849Z,99.10
2018-09-17T06:34:10.485Z,99.00
2018-09-17T06:36:38.197Z,98.70
2018-09-17T06:39:06.500Z,98.10
2018-09-17T06:41:34.173Z,97.80
2018-09-17T06:44:01.750Z,97.30
2018-09-17T06:46:29.391Z,97.00
2018-09-17T06:48:57.076Z,96.40
2018-09-17T06:51:24.758Z,95.80
2018-09-17T06:53:52.396Z,95.50
2018-09-17T06:56:20.065Z,94.90
2018-09-17T06:58:48.129Z,94.40
2018-09-17T07:01:15.780Z,94.40
2018-09-17T07:03:43.345Z,94.40
2018-09-17T07:06:12.018Z,94.00
2018-09-17T07:08:39.729Z,93.90
2018-09-17T07:11:07.393Z,93.50
2018-09-17T07:13:35.023Z,93.20
2018-09-17T07:16:02.696Z,92.80
2018-09-17T07:18:30.430Z,93.00
2018-09-17T07:20:58.105Z,92.90
2018-09-17T07:23:25.723Z,92.80
2018-09-17T07:25:53.307Z,92.80
2018-09-17T07:28:21.141Z,92.90
2018-09-17T07:30:48.721Z,92.40
2018-09-17T07:33:16.391Z,91.80
2018-09-17T07:35:49.139Z,91.60
2018-09-17T07:38:16.936Z,91.50
2018-09-17T07:40:44.585Z,91.50
2018-09-17T07:43:12.301Z,90.60
2018-09-17T07:45:40.053Z,90.30
2018-09-17T07:48:07.647Z,90.00
2018-09-17T07:50:35.281Z,88.90
2018-09-17T07:53:07.296Z,87.90
2018-09-17T07:55:34.952Z,86.70
2018-09-17T07:58:20.934Z,86.80
2018-09-17T08:00:49.893Z,86.50
2018-09-17T08:03:17.624Z,85.70
2018-09-17T08:05:52.719Z,85.40
2018-09-17T08:08:20.418Z,84.20
2018-09-17T08:10:49.209Z,82.90
2018-09-17T08:13:25.255Z,82.10
2018-09-17T08:15:53.082Z,82.20
2018-09-17T08:18:20.843Z,81.00
2018-09-17T08:20:48.550Z,81.80
2018-09-17T08:23:17.290Z,79.80
2018-09-17T08:25:49.458Z,79.30
2018-09-17T08:28:18.281Z,78.50
2018-09-17T08:30:50.629Z,77.30
2018-09-17T08:33:19.329Z,77.80
2018-09-17T08:35:47.051Z,77.30
2018-09-17T08:38:14.836Z,76.20
2018-09-17T08:40:42.486Z,75.70
2018-09-17T08:43:10.246Z,76.70
2018-09-17T08:45:38.040Z,75.60
2018-09-17T08:48:05.767Z,75.70
2018-09-17T08:50:33.597Z,74.20
2018-09-17T08:53:01.427Z,72.10
2018-09-17T08:55:34.370Z,69.70
2018-09-17T08:58:07.667Z,66.80
2018-09-17T09:00:40.652Z,66.70
2018-09-17T09:03:11.263Z,64.50
2018-09-17T09:05:42.903Z,62.50
2018-09-17T09:08:10.582Z,61.20
2018-09-17T09:10:43.634Z,59.90
2018-09-17T09:13:24.401Z,60.60
2018-09-17T09:15:55.983Z,60.90
2018-09-17T09:18:23.711Z,59.40
2018-09-17T09:20:51.359Z,59.20
2018-09-17T09:23:19.058Z,58.60
2018-09-17T09:25:46.691Z,58.20
2018-09-17T09:28:14.523Z,57.00
2018-09-17T09:30:49.094Z,57.70
2018-09-17T09:33:17.569Z,57.20
2018-09-17T09:35:45.346Z,56.20
2018-09-17T09:38:13.149Z,56.10
2018-09-17T09:40:41.394Z,55.40
2018-09-17T09:43:09.091Z,55.00
2018-09-17T09:45:36.849Z,54.20
2018-09-17T09:48:09.107Z,53.90
2018-09-17T09:50:36.772Z,53.80
2018-09-17T09:53:04.351Z,54.00
2018-09-17T09:55:31.937Z,53.90
2018-09-17T09:57:59.653Z,53.20
2018-09-17T10:00:32.747Z,53.30
2018-09-17T10:03:01.794Z,52.60
2018-09-17T10:05:29.750Z,51.50
2018-09-17T10:07:57.442Z,52.30
2018-09-17T10:10:33.901Z,51.50
2018-09-17T10:13:17.461Z,51.10
2018-09-17T10:15:49.793Z,51.10
2018-09-17T10:18:22.717Z,51.20
2018-09-17T10:20:50.305Z,50.30
2018-09-17T10:23:17.946Z,49.70
2018-09-17T10:25:45.577Z,49.70
2018-09-17T10:28:13.167Z,49.70
2018-09-17T10:30:41.824Z,48.50
2018-09-17T10:33:09.427Z,47.60
2018-09-17T10:35:37.126Z,46.60
2018-09-17T10:38:04.729Z,46.90
2018-09-17T10:40:32.357Z,46.40
2018-09-17T10:42:59.981Z,45.70
2018-09-17T10:45:27.594Z,45.20
2018-09-17T10:47:55.242Z,43.90
2018-09-17T10:50:23.030Z,43.80
2018-09-17T10:52:50.684Z,44.20
2018-09-17T10:55:18.273Z,43.40
2018-09-17T10:57:45.923Z,43.40
2018-09-17T11:00:13.579Z,44.00
2018-09-17T11:02:41.273Z,43.80
2018-09-17T11:05:18.652Z,43.50
2018-09-17T11:07:46.293Z,44.00
2018-09-17T11:10:14.781Z,43.30
2018-09-17T11:12:42.506Z,42.60
2018-09-17T11:15:10.182Z,43.60
2018-09-17T11:17:37.864Z,43.60
2018-09-17T11:20:05.681Z,43.50
2018-09-17T11:22:34.180Z,44.20
2018-09-17T11:25:01.969Z,44.90
2018-09-17T11:27:29.614Z,44.60
2018-09-17T11:29:57.272Z,44.80
2018-09-17T11:32:24.882Z,45.40
2018-09-17T11:34:52.515Z,44.80
2018-09-17T11:37:20.135Z,44.60
2018-09-17T11:39:47.855Z,44.10
2018-09-17T11:42:21.793Z,44.10
2018-09-17T11:44:50.341Z,43.90
2018-09-17T11:47:17.973Z,44.40
2018-09-17T11:49:49.301Z,44.20
2018-09-17T11:52:16.981Z,44.50
2018-09-17T11:54:44.809Z,42.60
2018-09-17T11:57:12.478Z,41.80
2018-09-17T11:59:40.207Z,42.40
2018-09-17T12:02:13.359Z,42.70
2018-09-17T12:04:46.529Z,43.00
2018-09-17T12:07:50.245Z,43.20
2018-09-17T12:10:17.913Z,43.00
2018-09-17T12:12:45.541Z,42.40
2018-09-17T12:15:13.253Z,41.80
2018-09-17T12:17:40.996Z,43.10
2018-09-17T12:20:12.491Z,43.10
2018-09-17T12:22:40.167Z,41.50
2018-09-17T12:25:07.841Z,40.80
2018-09-17T12:27:40.769Z,41.00
2018-09-17T12:30:08.511Z,40.70
2018-09-17T12:32:49.337Z,41.30
2018-09-17T12:35:16.957Z,41.50
2018-09-17T12:37:44.588Z,41.10
2018-09-17T12:40:12.344Z,41.70
2018-09-17T12:42:39.954Z,41.40
2018-09-17T12:45:07.626Z,42.10
2018-09-17T12:47:35.274Z,41.60
2018-09-17T12:50:02.953Z,41.00
2018-09-17T12:52:30.642Z,41.30
2018-09-17T12:54:58.504Z,40.70
2018-09-17T12:57:38.771Z,41.00
2018-09-17T13:00:07.164Z,41.60
2018-09-17T13:02:34.787Z,41.70
2018-09-17T13:05:02.466Z,41.60
2018-09-17T13:07:30.259Z,41.30
2018-09-17T13:09:58.093Z,41.40
2018-09-17T13:12:25.719Z,42.00
2018-09-17T13:14:53.525Z,41.40
2018-09-17T13:17:21.106Z,41.50
2018-09-17T13:19:48.763Z,42.00
2018-09-17T13:22:16.565Z,41.50
2018-09-17T13:24:45.347Z,41.20
2018-09-17T13:27:13.129Z,41.80
2018-09-17T13:29:45.025Z,42.00
2018-09-17T13:32:15.930Z,41.80
2018-09-17T13:34:54.752Z,41.70
2018-09-17T13:37:22.708Z,41.40
2018-09-17T13:39:55.913Z,41.30
2018-09-17T13:42:30.708Z,41.10
2018-09-17T13:47:50.622Z,41.00
2018-09-17T13:52:59.242Z,40.20
2018-09-17T14:53:56.467Z,41.50
2018-09-17T14:56:32.071Z,40.10
2018-09-17T14:59:02.300Z,40.60
2018-09-17T15:48:43.138Z,41.80
2018-09-17T17:03:21.622Z,41.30
2018-09-17T17:14:14.804Z,50.20
2018-09-17T17:19:29.497Z,51.50
